Time;durP1;ratioP1;P1;durP2;ratioP2;P2;SDS_P1;SDS_P2;PMS_P1;PMS_P2;Temp;Humidity;BMP_temperature;BMP_pressure;BME280_temperature;BME280_humidity;BME280_pressure;Samples;Min_cycle;Max_cycle;Signal;HPM_P1;HPM_P2
2022/01/09 00:01:10;;;;;;;5.95;3.40;;;3.80;99.90;;;;;;5094422;28;20195;-60
2022/01/09 00:03:36;;;;;;;2.15;1.88;;;3.80;99.90;;;;;;5101187;28;20187;-61
2022/01/09 00:06:01;;;;;;;2.53;1.88;;;3.80;99.90;;;;;;5098687;28;20210;-61
2022/01/09 00:08:27;;;;;;;0.95;0.95;;;3.80;99.90;;;;;;5111102;28;20187;-61
2022/01/09 00:10:53;;;;;;;2.17;1.10;;;3.80;99.90;;;;;;5110009;28;20171;-61
2022/01/09 00:13:18;;;;;;;0.70;0.70;;;3.80;99.90;;;;;;5112973;28;20203;-60
2022/01/09 00:15:44;;;;;;;1.02;0.90;;;3.80;99.90;;;;;;5110262;28;20187;-61
2022/01/09 00:18:10;;;;;;;1.38;1.10;;;3.90;99.90;;;;;;5103936;28;20184;-61
2022/01/09 00:20:35;;;;;;;0.90;0.90;;;3.80;99.90;;;;;;5096844;28;20669;-61
2022/01/09 00:23:01;;;;;;;1.45;1.27;;;3.80;99.90;;;;;;5113052;28;20176;-61
2022/01/09 00:25:28;;;;;;;1.27;1.17;;;3.80;99.90;;;;;;5093596;28;20659;-61
2022/01/09 00:27:53;;;;;;;1.75;0.82;;;3.90;99.90;;;;;;5093697;28;20206;-61
2022/01/09 00:30:22;;;;;;;2.47;1.73;;;3.90;99.90;;;;;;5093404;28;20168;-61
2022/01/09 00:32:49;;;;;;;1.52;1.20;;;3.90;99.90;;;;;;5092484;28;20176;-60
2022/01/09 00:35:15;;;;;;;1.20;1.10;;;3.90;99.90;;;;;;5093012;28;20195;-60
2022/01/09 00:37:41;;;;;;;1.23;1.10;;;3.90;99.90;;;;;;5093053;28;20192;-61
2022/01/09 00:40:09;;;;;;;1.35;1.00;;;3.80;99.90;;;;;;5093050;28;20702;-61
2022/01/09 00:42:35;;;;;;;0.80;0.80;;;3.80;99.90;;;;;;5092959;28;20401;-60
2022/01/09 00:45:01;;;;;;;0.65;0.65;;;3.90;99.90;;;;;;5092894;28;20172;-60
2022/01/09 00:47:27;;;;;;;1.15;0.63;;;3.90;99.90;;;;;;5093038;28;20188;-60
2022/01/09 00:49:52;;;;;;;0.80;0.80;;;3.80;99.90;;;;;;5093287;28;20183;-60
2022/01/09 00:52:18;;;;;;;0.60;0.60;;;3.80;99.90;;;;;;5092947;28;20228;-60
2022/01/09 00:54:43;;;;;;;1.85;0.90;;;3.90;99.90;;;;;;5092788;28;20577;-60
2022/01/09 00:57:09;;;;;;;2.50;1.27;;;3.90;99.90;;;;;;5093027;28;20252;-60
2022/01/09 00:59:34;;;;;;;1.48;1.30;;;3.80;99.90;;;;;;5091515;28;20578;-60
2022/01/09 01:02:00;;;;;;;0.70;0.70;;;3.90;99.90;;;;;;5092932;28;20647;-61
2022/01/09 01:04:26;;;;;;;1.92;1.30;;;3.90;99.90;;;;;;5093085;28;20199;-60
2022/01/09 01:06:51;;;;;;;9.82;4.03;;;3.90;99.90;;;;;;5092811;28;20180;-60
2022/01/09 01:09:20;;;;;;;6.38;3.03;;;3.90;99.90;;;;;;5092690;28;20265;-60
2022/01/09 01:11:46;;;;;;;2.50;1.73;;;3.90;99.90;;;;;;5093043;28;20180;-60
2022/01/09 01:14:12;;;;;;;8.68;3.67;;;3.90;99.90;;;;;;5092401;28;20732;-60
2022/01/09 01:16:38;;;;;;;3.42;1.95;;;3.90;99.90;;;;;;5093020;28;20545;-60
2022/01/09 01:19:05;;;;;;;6.70;2.83;;;3.90;99.90;;;;;;5092645;28;20179;-61
2022/01/09 01:21:32;;;;;;;3.72;1.75;;;4.00;99.90;;;;;;5092732;28;20172;-61
2022/01/09 01:23:58;;;;;;;3.28;1.83;;;4.00;99.90;;;;;;5093558;28;20234;-61
2022/01/09 01:26:24;;;;;;;1.70;1.30;;;4.00;99.90;;;;;;5097302;28;20172;-61
2022/01/09 01:28:49;;;;;;;3.00;1.70;;;4.00;99.90;;;;;;5108035;28;20188;-61
2022/01/09 01:31:15;;;;;;;2.90;1.60;;;4.00;99.90;;;;;;5096306;28;20266;-61
2022/01/09 01:33:40;;;;;;;11.85;4.63;;;4.00;99.90;;;;;;5092661;28;20216;-60
2022/01/09 01:36:06;;;;;;;3.63;2.00;;;4.00;99.90;;;;;;5091766;28;20191;-62
2022/01/09 01:38:32;;;;;;;1.38;1.00;;;4.10;99.90;;;;;;5090815;28;20180;-61
2022/01/09 01:40:58;;;;;;;0.90;0.90;;;4.10;99.90;;;;;;5090764;28;20176;-62
2022/01/09 01:43:25;;;;;;;1.50;1.23;;;4.10;99.90;;;;;;5093985;28;20187;-61
2022/01/09 01:45:50;;;;;;;2.22;1.50;;;4.10;99.90;;;;;;5091991;28;20719;-61
2022/01/09 01:48:16;;;;;;;1.67;1.33;;;4.20;99.90;;;;;;5092076;28;20264;-61
2022/01/09 01:50:42;;;;;;;6.30;2.30;;;4.20;99.90;;;;;;5103844;28;20180;-62
2022/01/09 01:53:12;;;;;;;2.65;1.40;;;4.20;99.90;;;;;;5093489;28;20212;-61
2022/01/09 01:55:40;;;;;;;3.75;1.33;;;4.20;99.90;;;;;;5105647;28;20330;-60
2022/01/09 01:58:07;;;;;;;4.43;2.15;;;4.20;99.90;;;;;;5110427;28;20233;-61
2022/01/09 02:00:33;;;;;;;4.15;2.08;;;4.20;99.90;;;;;;5095101;28;20172;-61
2022/01/09 02:03:00;;;;;;;0.63;0.63;;;4.20;99.90;;;;;;5091944;28;20301;-61
2022/01/09 02:05:26;;;;;;;0.60;0.60;;;4.20;99.90;;;;;;5091591;28;20164;-61
2022/01/09 02:07:52;;;;;;;1.77;0.95;;;4.20;99.90;;;;;;5092820;28;20176;-60
2022/01/09 02:10:18;;;;;;;1.95;1.20;;;4.20;99.90;;;;;;5100490;28;20175;-60
2022/01/09 02:12:44;;;;;;;1.75;1.00;;;4.20;99.90;;;;;;5094604;28;20184;-60
2022/01/09 02:15:36;;;;;;;0.50;0.50;;;4.20;99.90;;;;;;5093025;28;20207;-61
2022/01/09 02:18:11;;;;;;;0.32;0.32;;;4.20;99.90;;;;;;5097024;28;20168;-60
2022/01/09 02:20:38;;;;;;;0.30;0.30;;;4.20;99.90;;;;;;5095771;28;20186;-60
2022/01/09 02:23:09;;;;;;;0.30;0.30;;;4.30;99.90;;;;;;5091933;28;20203;-61
2022/01/09 02:25:36;;;;;;;0.30;0.30;;;4.30;99.90;;;;;;5097481;28;20194;-61
2022/01/09 02:28:02;;;;;;;1.17;0.20;;;4.30;99.90;;;;;;5094005;28;20180;-61
2022/01/09 02:30:32;;;;;;;0.30;0.30;;;4.40;99.90;;;;;;5090285;28;20187;-60
2022/01/09 02:32:58;;;;;;;0.60;0.60;;;4.40;99.90;;;;;;5091906;28;20168;-61
2022/01/09 02:35:25;;;;;;;0.60;0.60;;;4.50;99.90;;;;;;5091910;28;20190;-60
2022/01/09 02:37:50;;;;;;;4.10;0.30;;;4.60;99.90;;;;;;5107972;28;20229;-60
2022/01/09 02:40:16;;;;;;;1.48;0.30;;;4.70;99.90;;;;;;5098325;28;20187;-61
2022/01/09 02:42:42;;;;;;;2.15;0.50;;;4.80;99.90;;;;;;5092407;28;20267;-60
2022/01/09 02:45:08;;;;;;;0.38;0.30;;;5.10;99.90;;;;;;5091882;28;20259;-61
2022/01/09 02:47:34;;;;;;;3.60;0.30;;;5.30;99.90;;;;;;5091596;28;20199;-60
2022/01/09 02:52:59;;;;;;;0.75;0.45;;;5.70;99.90;;;;;;5071311;28;20666;-60
2022/01/09 02:55:26;;;;;;;1.27;0.20;;;5.80;99.90;;;;;;5091960;28;20653;-60
2022/01/09 02:57:57;;;;;;;0.98;0.40;;;6.00;99.90;;;;;;5097845;28;20220;-60
2022/01/09 03:00:35;;;;;;;1.45;0.30;;;6.00;99.90;;;;;;5096386;28;20184;-60
2022/01/09 03:03:01;;;;;;;0.30;0.28;;;6.10;99.90;;;;;;5096170;28;20267;-61
2022/01/09 03:05:28;;;;;;;0.25;0.20;;;6.10;99.90;;;;;;5111188;28;20191;-60
2022/01/09 03:07:54;;;;;;;1.02;0.20;;;6.10;99.90;;;;;;5097278;28;20172;-60
2022/01/09 03:10:21;;;;;;;0.10;0.10;;;6.10;99.90;;;;;;5112339;28;20626;-60
2022/01/09 03:12:48;;;;;;;0.93;0.32;;;6.10;99.90;;;;;;5115763;28;20167;-60
2022/01/09 03:15:14;;;;;;;1.02;0.20;;;6.10;99.90;;;;;;5099749;28;20180;-60
2022/01/09 03:17:41;;;;;;;0.15;0.10;;;6.10;99.90;;;;;;5101039;28;20529;-59
2022/01/09 03:20:13;;;;;;;0.20;0.10;;;6.00;99.90;;;;;;5108947;28;20266;-60
2022/01/09 03:22:39;;;;;;;0.10;0.10;;;6.00;99.90;;;;;;5095223;28;20179;-60
2022/01/09 03:25:05;;;;;;;0.98;0.20;;;6.00;99.90;;;;;;5100988;28;20179;-60
2022/01/09 03:27:31;;;;;;;0.20;0.15;;;5.90;99.90;;;;;;5109084;28;20179;-60
2022/01/09 03:29:56;;;;;;;0.60;0.10;;;5.90;99.90;;;;;;5097935;28;20667;-60
2022/01/09 03:32:22;;;;;;;0.10;0.10;;;5.90;99.90;;;;;;5109283;28;20175;-60
2022/01/09 03:34:47;;;;;;;0.10;0.10;;;5.90;99.90;;;;;;5103676;28;20215;-59
2022/01/09 03:37:13;;;;;;;0.13;0.13;;;5.80;99.90;;;;;;5103584;28;20183;-60
2022/01/09 03:39:38;;;;;;;0.10;0.00;;;5.90;99.90;;;;;;5104510;28;20227;-60
2022/01/09 03:42:04;;;;;;;2.45;0.60;;;5.80;99.90;;;;;;5094631;28;20639;-60
2022/01/09 03:44:30;;;;;;;0.10;0.10;;;5.80;99.90;;;;;;5101054;28;20206;-60
2022/01/09 03:46:55;;;;;;;0.52;0.30;;;5.80;99.90;;;;;;5107849;28;20191;-60
2022/01/09 03:49:22;;;;;;;0.05;0.05;;;5.80;99.90;;;;;;5095692;28;20180;-60
2022/01/09 03:51:50;;;;;;;0.10;0.10;;;5.80;99.90;;;;;;5101622;28;20196;-60
2022/01/09 03:54:17;;;;;;;0.25;0.20;;;5.70;99.90;;;;;;5102582;28;20294;-60
2022/01/09 03:56:42;;;;;;;0.13;0.08;;;5.70;99.90;;;;;;5096512;28;20230;-60
2022/01/09 03:59:08;;;;;;;0.30;0.30;;;5.70;99.90;;;;;;5101271;28;20216;-60
2022/01/09 04:01:33;;;;;;;0.10;0.10;;;5.60;99.90;;;;;;5102510;28;20180;-59
2022/01/09 04:03:59;;;;;;;1.88;0.30;;;5.60;99.90;;;;;;5105610;28;20178;-60
2022/01/09 04:06:24;;;;;;;0.13;0.13;;;5.60;99.90;;;;;;5104009;28;20187;-60
2022/01/09 04:08:52;;;;;;;0.10;0.10;;;5.50;99.90;;;;;;5098510;28;20211;-60
2022/01/09 04:11:27;;;;;;;0.00;0.00;;;5.40;99.90;;;;;;5108611;28;20279;-59
2022/01/09 04:13:53;;;;;;;2.08;0.40;;;5.30;99.90;;;;;;5094755;28;20212;-59
2022/01/09 04:16:19;;;;;;;0.00;0.00;;;5.30;99.90;;;;;;5098109;28;20172;-60
2022/01/09 04:18:44;;;;;;;0.05;0.05;;;5.20;99.90;;;;;;5106304;28;20208;-60
2022/01/09 04:21:10;;;;;;;0.10;0.10;;;5.10;99.90;;;;;;5111424;28;20244;-59
2022/01/09 04:23:35;;;;;;;0.10;0.10;;;5.10;99.90;;;;;;5099480;28;20207;-59
2022/01/09 04:26:01;;;;;;;0.10;0.10;;;5.00;99.90;;;;;;5112822;28;20203;-60
2022/01/09 04:28:27;;;;;;;0.03;0.03;;;5.00;99.90;;;;;;5098974;28;20188;-60
2022/01/09 04:30:52;;;;;;;0.00;0.00;;;5.00;99.90;;;;;;5108478;28;20199;-60
2022/01/09 04:33:18;;;;;;;0.17;0.17;;;4.90;99.90;;;;;;5092356;28;20602;-60
2022/01/09 04:35:44;;;;;;;1.30;0.20;;;4.90;99.90;;;;;;5093214;28;20216;-61
2022/01/09 04:38:09;;;;;;;0.20;0.10;;;4.90;99.90;;;;;;5093800;28;20293;-59
2022/01/09 04:40:35;;;;;;;0.15;0.15;;;4.90;99.90;;;;;;5108575;28;20664;-59
2022/01/09 04:43:03;;;;;;;0.43;0.20;;;5.00;99.90;;;;;;5099936;28;20194;-60
2022/01/09 04:45:29;;;;;;;0.50;0.20;;;5.00;99.90;;;;;;5110131;28;20237;-59
2022/01/09 04:48:00;;;;;;;0.10;0.10;;;5.00;99.90;;;;;;5110983;28;20609;-60
2022/01/09 04:50:29;;;;;;;0.75;0.20;;;4.90;99.90;;;;;;5098806;28;20176;-59
2022/01/09 04:53:00;;;;;;;0.10;0.10;;;4.90;99.90;;;;;;5093062;28;20180;-59
2022/01/09 04:55:27;;;;;;;0.17;0.17;;;4.90;99.90;;;;;;5099031;28;20220;-60
2022/01/09 04:57:53;;;;;;;0.20;0.20;;;4.90;99.90;;;;;;5105790;28;20207;-59
2022/01/09 05:00:18;;;;;;;0.20;0.20;;;4.80;99.90;;;;;;5097916;28;20580;-59
2022/01/09 05:02:44;;;;;;;0.10;0.10;;;4.80;99.90;;;;;;5103662;28;20211;-59
2022/01/09 05:05:10;;;;;;;0.20;0.20;;;4.80;99.90;;;;;;5093031;28;20542;-59
2022/01/09 05:07:37;;;;;;;1.55;0.30;;;4.70;99.90;;;;;;5093774;28;20176;-59
2022/01/09 05:10:04;;;;;;;0.20;0.20;;;4.70;99.90;;;;;;5092751;28;20222;-59
2022/01/09 05:12:30;;;;;;;0.10;0.10;;;4.60;99.90;;;;;;5096019;28;20637;-60
2022/01/09 05:14:55;;;;;;;0.13;0.13;;;4.60;99.90;;;;;;5110400;28;20251;-60
2022/01/09 05:17:21;;;;;;;0.17;0.17;;;4.50;99.90;;;;;;5111400;28;20289;-60
2022/01/09 05:19:47;;;;;;;0.20;0.20;;;4.50;99.90;;;;;;5104326;28;20202;-60
2022/01/09 05:22:13;;;;;;;0.20;0.10;;;4.50;99.90;;;;;;5093469;28;20665;-60
2022/01/09 05:24:39;;;;;;;0.20;0.20;;;4.50;99.90;;;;;;5106955;28;20184;-60
2022/01/09 05:27:05;;;;;;;0.17;0.17;;;4.50;99.90;;;;;;5104654;28;20179;-60
2022/01/09 05:29:30;;;;;;;0.63;0.20;;;4.40;99.90;;;;;;5092611;28;20675;-60
2022/01/09 05:31:56;;;;;;;0.63;0.20;;;4.30;99.90;;;;;;5099244;28;20650;-60
2022/01/09 05:34:22;;;;;;;0.10;0.10;;;4.30;99.90;;;;;;5103436;28;20613;-60
2022/01/09 05:36:47;;;;;;;0.35;0.10;;;4.10;99.90;;;;;;5091945;28;20183;-60
2022/01/09 05:39:13;;;;;;;2.03;0.10;;;4.10;99.90;;;;;;5090064;28;20187;-60
2022/01/09 05:41:40;;;;;;;0.20;0.20;;;3.90;99.90;;;;;;5090928;28;20225;-60
2022/01/09 05:44:06;;;;;;;0.10;0.10;;;3.90;99.90;;;;;;5091777;28;20184;-60
2022/01/09 05:46:31;;;;;;;0.10;0.10;;;3.80;99.90;;;;;;5091908;28;20187;-60
2022/01/09 05:48:57;;;;;;;0.30;0.17;;;3.80;99.90;;;;;;5091885;28;20230;-60
2022/01/09 05:51:23;;;;;;;0.30;0.30;;;3.80;99.90;;;;;;5091515;28;20198;-60
2022/01/09 05:53:48;;;;;;;0.15;0.15;;;3.80;99.90;;;;;;5091538;28;20235;-60
2022/01/09 05:56:14;;;;;;;0.22;0.22;;;3.80;99.90;;;;;;5091602;28;20188;-60
2022/01/09 05:58:39;;;;;;;0.57;0.40;;;3.70;99.90;;;;;;5091748;28;20306;-60
2022/01/09 06:01:06;;;;;;;2.92;0.85;;;3.70;99.90;;;;;;5091252;28;20654;-60
2022/01/09 06:03:32;;;;;;;2.03;0.73;;;3.70;99.90;;;;;;5092152;28;20211;-60
2022/01/09 06:05:58;;;;;;;1.63;0.65;;;3.70;99.90;;;;;;5091646;28;20196;-60
2022/01/09 06:08:23;;;;;;;0.82;0.50;;;3.80;99.90;;;;;;5091478;28;20183;-60
2022/01/09 06:10:49;;;;;;;0.70;0.40;;;3.80;99.90;;;;;;5091379;28;20542;-60
2022/01/09 06:13:14;;;;;;;1.90;0.95;;;3.80;99.90;;;;;;5091716;28;20204;-60
2022/01/09 06:15:40;;;;;;;1.48;0.75;;;3.80;99.90;;;;;;5091174;28;20206;-60
2022/01/09 06:18:06;;;;;;;0.50;0.50;;;3.80;99.90;;;;;;5091385;28;20188;-60
2022/01/09 06:20:31;;;;;;;0.52;0.50;;;3.80;99.90;;;;;;5090429;28;20187;-60
2022/01/09 06:22:57;;;;;;;2.97;0.95;;;3.80;99.90;;;;;;5091229;28;20184;-61
2022/01/09 06:25:23;;;;;;;0.80;0.52;;;3.90;99.90;;;;;;5091137;28;20184;-60
2022/01/09 06:27:48;;;;;;;1.27;0.77;;;3.90;99.90;;;;;;5090257;28;20537;-60
2022/01/09 06:30:15;;;;;;;2.08;0.90;;;3.90;99.90;;;;;;5095262;28;20184;-60
2022/01/09 06:32:41;;;;;;;1.90;0.60;;;3.90;99.90;;;;;;5095650;28;20233;-60
2022/01/09 06:35:07;;;;;;;1.50;0.88;;;4.00;99.90;;;;;;5093467;28;20682;-60
2022/01/09 06:37:34;;;;;;;1.08;0.98;;;3.90;99.90;;;;;;5094915;28;20180;-60
2022/01/09 06:40:00;;;;;;;1.38;0.88;;;3.90;99.90;;;;;;5079605;28;20184;-60
2022/01/09 06:42:25;;;;;;;4.05;0.88;;;3.90;99.90;;;;;;5091946;28;20557;-60
2022/01/09 06:44:51;;;;;;;0.55;0.55;;;3.90;99.90;;;;;;5095181;28;20211;-60
2022/01/09 06:47:17;;;;;;;2.08;0.68;;;3.90;99.90;;;;;;5094905;28;20715;-60
2022/01/09 06:49:43;;;;;;;1.00;0.90;;;3.90;99.90;;;;;;5094971;28;20184;-60
2022/01/09 06:52:08;;;;;;;1.55;0.70;;;3.90;99.90;;;;;;5094819;28;20172;-60
2022/01/09 06:54:34;;;;;;;2.42;0.95;;;3.90;99.90;;;;;;5090540;28;20261;-60
2022/01/09 06:56:59;;;;;;;1.60;1.13;;;3.90;99.90;;;;;;5094777;28;20229;-61
2022/01/09 06:59:25;;;;;;;1.88;0.80;;;3.90;99.90;;;;;;5094414;28;20302;-60
2022/01/09 07:01:52;;;;;;;1.77;0.77;;;3.90;99.90;;;;;;5094999;28;20204;-60
2022/01/09 07:04:17;;;;;;;2.65;1.40;;;3.90;99.90;;;;;;5094469;28;20199;-60
2022/01/09 07:06:43;;;;;;;3.80;1.20;;;3.90;99.90;;;;;;5084452;28;20640;-60
2022/01/09 07:09:08;;;;;;;2.45;1.55;;;3.90;99.90;;;;;;5089587;28;20180;-60
2022/01/09 07:11:35;;;;;;;3.95;1.48;;;3.90;99.90;;;;;;5095111;28;20195;-60
2022/01/09 07:14:01;;;;;;;4.72;1.55;;;3.90;99.90;;;;;;5092987;28;20310;-60
2022/01/09 07:16:26;;;;;;;4.20;1.10;;;3.90;99.90;;;;;;5093736;28;20188;-60
2022/01/09 07:18:52;;;;;;;4.40;1.63;;;3.90;99.90;;;;;;5094853;28;20188;-60
2022/01/09 07:21:17;;;;;;;5.22;1.70;;;3.90;99.90;;;;;;5094034;28;20275;-60
2022/01/09 07:23:43;;;;;;;7.18;1.60;;;3.90;99.90;;;;;;5094177;28;20180;-60
2022/01/09 07:26:09;;;;;;;2.13;1.33;;;3.90;99.90;;;;;;5094248;28;20263;-60
2022/01/09 07:28:35;;;;;;;5.90;1.67;;;3.90;99.90;;;;;;5094463;28;20279;-60
2022/01/09 07:31:00;;;;;;;6.53;1.13;;;3.90;99.90;;;;;;5094210;28;20184;-60
2022/01/09 07:33:26;;;;;;;7.07;1.52;;;3.90;99.90;;;;;;5094071;28;20212;-59
2022/01/09 07:35:51;;;;;;;8.23;2.10;;;3.80;99.90;;;;;;5089676;28;20268;-60
2022/01/09 07:38:17;;;;;;;2.80;1.58;;;3.90;99.90;;;;;;5086427;28;20744;-60
2022/01/09 07:40:42;;;;;;;4.25;1.40;;;3.80;99.90;;;;;;5092718;28;20187;-60
2022/01/09 07:43:08;;;;;;;4.82;1.30;;;3.80;99.90;;;;;;5092707;28;20191;-59
2022/01/09 07:45:34;;;;;;;3.70;1.63;;;3.90;99.90;;;;;;5093570;28;20176;-60
2022/01/09 07:48:02;;;;;;;6.65;1.65;;;3.80;99.90;;;;;;5094381;28;20180;-60
2022/01/09 07:50:29;;;;;;;2.50;1.48;;;3.80;99.90;;;;;;5093702;28;20612;-60
2022/01/09 07:52:55;;;;;;;1.92;1.20;;;3.80;99.90;;;;;;5093637;28;20190;-60
2022/01/09 07:55:22;;;;;;;3.90;1.10;;;3.80;99.90;;;;;;5094208;28;20280;-61
2022/01/09 07:57:48;;;;;;;4.97;1.83;;;3.80;99.90;;;;;;5093672;28;20238;-61
2022/01/09 08:00:15;;;;;;;3.22;1.80;;;3.90;99.90;;;;;;5093692;28;20179;-60
2022/01/09 08:02:49;;;;;;;4.35;1.17;;;3.90;99.90;;;;;;5094051;28;20624;-60
2022/01/09 08:05:15;;;;;;;7.72;1.88;;;3.80;99.90;;;;;;5077953;28;20176;-60
2022/01/09 08:07:41;;;;;;;6.25;1.60;;;3.80;99.90;;;;;;5094215;28;20627;-60
2022/01/09 08:10:07;;;;;;;3.75;1.45;;;3.80;99.90;;;;;;5093734;28;20203;-60
2022/01/09 08:12:33;;;;;;;4.72;1.15;;;3.80;99.90;;;;;;5094139;28;20215;-60
2022/01/09 08:14:58;;;;;;;4.35;1.35;;;3.90;99.90;;;;;;5092880;28;20265;-61
2022/01/09 08:17:24;;;;;;;3.53;1.25;;;3.90;99.90;;;;;;5091961;28;20266;-61
2022/01/09 08:19:49;;;;;;;6.13;1.50;;;3.90;99.90;;;;;;5092997;28;20178;-60
2022/01/09 08:22:15;;;;;;;5.82;2.28;;;3.90;99.90;;;;;;5093147;28;20217;-59
2022/01/09 08:24:41;;;;;;;4.45;2.17;;;3.90;99.90;;;;;;5093297;28;20192;-59
2022/01/09 08:27:08;;;;;;;7.32;2.35;;;3.90;99.90;;;;;;5092807;28;20187;-60
2022/01/09 08:29:34;;;;;;;5.80;1.63;;;3.90;99.90;;;;;;5092406;28;20183;-60
2022/01/09 08:32:00;;;;;;;5.90;1.52;;;3.90;99.90;;;;;;5093255;28;20191;-61
2022/01/09 08:34:26;;;;;;;4.07;2.08;;;3.90;99.90;;;;;;5092525;28;20226;-60
2022/01/09 08:36:51;;;;;;;8.57;2.13;;;3.90;99.90;;;;;;5092925;28;20172;-59
2022/01/09 08:39:18;;;;;;;6.78;2.17;;;4.00;99.90;;;;;;5090292;28;20300;-59
2022/01/09 08:41:43;;;;;;;4.60;1.60;;;4.00;99.90;;;;;;5091731;28;20642;-61
2022/01/09 08:44:09;;;;;;;6.07;1.73;;;4.00;99.90;;;;;;5105212;28;20176;-60
2022/01/09 08:46:36;;;;;;;7.25;1.90;;;4.00;99.90;;;;;;5100218;28;20184;-60
2022/01/09 08:49:03;;;;;;;11.68;2.13;;;4.00;99.90;;;;;;5093446;28;20188;-60
2022/01/09 08:51:29;;;;;;;5.50;1.95;;;4.00;99.90;;;;;;5092322;28;20180;-60
2022/01/09 08:53:56;;;;;;;8.55;2.28;;;4.00;99.90;;;;;;5092444;28;20736;-60
2022/01/09 08:56:25;;;;;;;9.63;4.25;;;4.00;99.90;;;;;;5092281;28;20188;-60
2022/01/09 08:58:51;;;;;;;5.10;1.80;;;4.00;99.90;;;;;;5093196;28;20307;-60
2022/01/09 09:01:17;;;;;;;6.03;3.03;;;4.00;99.90;;;;;;5092011;28;20308;-60
2022/01/09 09:03:44;;;;;;;6.97;2.67;;;4.00;99.90;;;;;;5092870;28;20179;-60
2022/01/09 09:06:16;;;;;;;6.32;2.00;;;4.00;99.90;;;;;;5092224;28;20581;-61
2022/01/09 09:08:43;;;;;;;9.20;3.03;;;4.00;99.90;;;;;;5093179;28;20186;-61
2022/01/09 09:11:11;;;;;;;7.85;1.67;;;4.10;99.90;;;;;;5090583;28;20176;-60
2022/01/09 09:13:38;;;;;;;10.82;3.00;;;4.10;99.90;;;;;;5092599;28;20204;-60
2022/01/09 09:16:04;;;;;;;8.93;1.77;;;4.20;99.90;;;;;;5092452;28;20180;-61
2022/01/09 09:18:30;;;;;;;3.13;1.50;;;4.20;99.90;;;;;;5091701;28;20188;-60
2022/01/09 09:20:56;;;;;;;9.52;3.45;;;4.20;99.90;;;;;;5092518;28;20264;-60
2022/01/09 09:23:22;;;;;;;4.82;1.80;;;4.20;99.90;;;;;;5092131;28;20194;-59
2022/01/09 09:25:48;;;;;;;3.35;1.60;;;4.20;99.90;;;;;;5093944;28;20228;-60
2022/01/09 09:28:14;;;;;;;4.47;1.80;;;4.30;99.90;;;;;;5092259;28;20259;-60
2022/01/09 09:30:40;;;;;;;4.88;1.63;;;4.30;99.90;;;;;;5091871;28;20287;-60
2022/01/09 09:33:05;;;;;;;5.72;1.73;;;4.40;99.90;;;;;;5092322;28;20251;-60
2022/01/09 09:35:32;;;;;;;5.28;1.40;;;4.40;99.90;;;;;;5091709;28;20199;-61
2022/01/09 09:37:58;;;;;;;6.82;1.40;;;4.40;99.90;;;;;;5092526;28;20172;-61
2022/01/09 09:40:25;;;;;;;7.72;1.67;;;4.40;99.90;;;;;;5092001;28;20318;-60
2022/01/09 09:42:51;;;;;;;6.05;1.38;;;4.40;99.90;;;;;;5092567;28;20168;-61
2022/01/09 09:45:17;;;;;;;7.85;1.50;;;4.40;99.90;;;;;;5091231;28;20180;-60
2022/01/09 09:47:43;;;;;;;7.03;1.50;;;4.40;99.90;;;;;;5092239;28;20657;-60
2022/01/09 09:50:11;;;;;;;6.35;1.92;;;4.40;99.90;;;;;;5091232;28;20179;-60
2022/01/09 09:52:37;;;;;;;6.47;2.33;;;4.40;99.90;;;;;;5092412;28;20639;-60
2022/01/09 09:55:03;;;;;;;4.65;1.95;;;4.40;99.90;;;;;;5091502;28;20229;-61
2022/01/09 09:57:28;;;;;;;8.32;2.10;;;4.40;99.90;;;;;;5091912;28;20172;-60
2022/01/09 10:00:06;;;;;;;9.15;2.03;;;4.50;99.90;;;;;;5090886;28;20255;-60
2022/01/09 10:02:47;;;;;;;7.57;2.47;;;4.50;99.90;;;;;;5091862;28;20651;-60
2022/01/09 10:05:18;;;;;;;8.65;2.78;;;4.50;99.90;;;;;;5091916;28;20172;-60
2022/01/09 10:07:44;;;;;;;10.85;3.60;;;4.50;99.90;;;;;;5091832;28;20191;-60
2022/01/09 10:10:18;;;;;;;7.68;3.40;;;4.40;99.90;;;;;;5091758;28;20172;-60
2022/01/09 10:12:45;;;;;;;8.02;3.28;;;4.40;99.90;;;;;;5092179;28;20689;-60
2022/01/09 10:15:18;;;;;;;6.32;2.08;;;4.40;99.90;;;;;;5091282;28;20223;-60
2022/01/09 10:17:49;;;;;;;6.20;1.98;;;4.40;99.90;;;;;;5091608;28;20180;-60
2022/01/09 10:20:18;;;;;;;9.55;2.33;;;4.40;99.90;;;;;;5091821;28;20291;-61
2022/01/09 10:22:46;;;;;;;12.45;7.15;;;4.40;99.90;;;;;;5091799;28;20603;-61
2022/01/09 10:25:25;;;;;;;9.38;2.72;;;4.40;99.90;;;;;;5091637;28;20635;-61
2022/01/09 10:28:38;;;;;;;5.72;1.67;;;4.40;99.90;;;;;;5091569;28;20712;-60
2022/01/09 10:31:14;;;;;;;4.10;1.52;;;4.40;99.90;;;;;;5085633;28;20591;-60
2022/01/09 10:33:40;;;;;;;8.15;2.47;;;4.40;99.90;;;;;;5090786;28;20238;-61
2022/01/09 10:36:05;;;;;;;53.13;23.27;;;4.40;99.90;;;;;;5089697;28;20235;-60
2022/01/09 10:38:31;;;;;;;6.43;1.67;;;4.80;99.90;;;;;;5090933;28;20183;-60
2022/01/09 10:40:58;;;;;;;7.15;2.88;;;5.50;99.90;;;;;;5091966;28;20535;-60
2022/01/09 10:43:34;;;;;;;5.65;1.90;;;5.40;99.90;;;;;;5090886;28;20183;-61
2022/01/09 10:46:01;;;;;;;6.03;2.25;;;5.20;99.90;;;;;;5088941;28;20691;-61
2022/01/09 10:48:33;;;;;;;9.10;2.42;;;5.00;99.90;;;;;;5091830;28;20223;-60
2022/01/09 10:51:00;;;;;;;7.65;1.50;;;4.80;99.90;;;;;;5091489;28;20602;-60
2022/01/09 10:53:37;;;;;;;3.97;1.63;;;4.70;99.90;;;;;;5091018;28;20563;-60
2022/01/09 10:56:05;;;;;;;4.90;2.00;;;4.70;99.90;;;;;;5091051;28;20184;-60
2022/01/09 10:58:34;;;;;;;6.35;1.65;;;4.70;99.90;;;;;;5091746;28;20234;-60
2022/01/09 11:01:21;;;;;;;4.57;1.52;;;4.70;99.90;;;;;;5090865;28;20180;-60
2022/01/09 11:04:07;;;;;;;6.63;2.10;;;4.60;99.90;;;;;;5090819;28;20573;-61
2022/01/09 11:06:39;;;;;;;5.18;2.20;;;4.60;99.90;;;;;;5086992;28;20177;-60
2022/01/09 11:09:06;;;;;;;6.10;2.00;;;4.60;99.90;;;;;;5090848;28;20567;-61
2022/01/09 11:11:38;;;;;;;5.63;2.00;;;4.70;99.90;;;;;;5091038;28;20180;-61
2022/01/09 11:14:06;;;;;;;5.93;1.88;;;4.80;99.90;;;;;;5091169;28;20295;-61
2022/01/09 11:16:32;;;;;;;5.63;1.90;;;4.80;99.90;;;;;;5092598;28;20176;-61
2022/01/09 11:19:04;;;;;;;2.95;1.60;;;4.80;99.90;;;;;;5095309;28;20519;-61
2022/01/09 11:21:30;;;;;;;5.82;1.50;;;4.90;99.90;;;;;;5094608;28;20291;-61
2022/01/09 11:24:07;;;;;;;4.57;1.90;;;4.90;99.90;;;;;;5094624;28;20683;-61
2022/01/09 11:26:47;;;;;;;3.50;1.77;;;4.90;99.90;;;;;;5093709;28;20659;-61
2022/01/09 11:29:15;;;;;;;4.07;1.67;;;4.90;99.90;;;;;;5090826;28;20179;-60
2022/01/09 11:32:20;;;;;;;5.82;1.83;;;4.80;99.90;;;;;;5094323;28;20275;-61
2022/01/09 11:35:11;;;;;;;8.02;2.25;;;4.60;99.90;;;;;;5058726;28;20255;-60
2022/01/09 11:37:53;;;;;;;6.20;2.80;;;4.50;99.90;;;;;;5078566;28;20202;-60
2022/01/09 11:40:23;;;;;;;7.78;3.20;;;4.50;99.90;;;;;;5094236;28;20180;-61
2022/01/09 11:43:02;;;;;;;7.03;2.47;;;4.50;99.90;;;;;;5094163;28;20647;-60
2022/01/09 11:45:42;;;;;;;9.90;3.83;;;4.70;99.90;;;;;;5079465;28;20540;-61
2022/01/09 11:48:07;;;;;;;17.10;8.43;;;4.80;99.90;;;;;;5081687;28;20177;-60
2022/01/09 11:50:34;;;;;;;6.25;3.03;;;4.80;99.90;;;;;;5080146;28;20249;-60
2022/01/09 11:53:01;;;;;;;8.52;4.18;;;4.80;99.90;;;;;;5089842;28;20172;-61
2022/01/09 11:55:35;;;;;;;4.38;2.20;;;4.80;99.90;;;;;;5089607;28;20211;-61
2022/01/09 11:58:03;;;;;;;9.55;2.65;;;4.80;99.90;;;;;;5093299;28;20237;-61
2022/01/09 12:00:35;;;;;;;8.88;2.70;;;4.80;99.90;;;;;;5076703;28;20543;-60
2022/01/09 12:03:21;;;;;;;7.78;2.08;;;4.80;99.90;;;;;;5090709;28;20187;-61
2022/01/09 12:05:59;;;;;;;5.45;1.90;;;4.80;99.90;;;;;;5093913;28;20688;-60
2022/01/09 12:08:25;;;;;;;6.75;2.22;;;4.90;99.90;;;;;;5092485;28;20188;-60
2022/01/09 12:10:52;;;;;;;6.18;1.77;;;5.00;99.90;;;;;;5093979;28;20179;-60
2022/01/09 12:13:39;;;;;;;3.50;1.60;;;5.10;99.90;;;;;;5093543;28;20173;-60
2022/01/09 12:16:07;;;;;;;8.93;1.77;;;5.20;99.90;;;;;;5092236;28;20194;-61
2022/01/09 12:18:45;;;;;;;5.13;1.45;;;5.30;99.90;;;;;;5093525;28;20576;-61
2022/01/09 12:21:39;;;;;;;5.22;1.80;;;5.30;99.90;;;;;;5093355;28;20180;-60
2022/01/09 12:24:45;;;;;;;6.05;1.40;;;5.20;99.90;;;;;;5093203;28;20184;-60
2022/01/09 12:27:35;;;;;;;7.70;1.80;;;5.20;99.90;;;;;;5092776;28;20196;-60
2022/01/09 12:30:05;;;;;;;8.52;2.67;;;5.20;99.90;;;;;;5093526;28;20293;-61
2022/01/09 12:32:39;;;;;;;5.72;2.00;;;5.30;99.90;;;;;;5092639;28;20172;-60
2022/01/09 12:35:16;;;;;;;16.13;8.30;;;5.30;99.90;;;;;;5097507;28;20214;-61
2022/01/09 12:37:50;;;;;;;8.48;2.15;;;5.30;99.90;;;;;;5103285;28;20175;-60
2022/01/09 12:40:20;;;;;;;8.55;2.80;;;5.40;99.90;;;;;;5096641;28;20183;-61
2022/01/09 12:42:50;;;;;;;7.72;2.63;;;5.50;99.90;;;;;;5097391;28;20207;-61
2022/01/09 12:45:27;;;;;;;12.70;5.07;;;5.60;99.90;;;;;;5113940;28;20172;-60
2022/01/09 12:47:57;;;;;;;7.55;2.60;;;5.50;99.90;;;;;;5100417;28;20222;-60
2022/01/09 12:50:28;;;;;;;5.25;3.00;;;5.50;99.90;;;;;;5076326;28;20172;-60
2022/01/09 12:53:11;;;;;;;7.53;2.35;;;5.40;99.90;;;;;;5093248;28;20180;-60
2022/01/09 12:56:11;;;;;;;10.70;2.70;;;5.40;99.90;;;;;;5093321;28;20202;-60
2022/01/09 12:58:39;;;;;;;4.10;2.20;;;5.20;99.90;;;;;;5072957;28;20311;-59
2022/01/09 13:01:16;;;;;;;5.32;2.65;;;5.10;99.90;;;;;;5078877;28;20188;-59
2022/01/09 13:03:50;;;;;;;7.40;2.90;;;5.00;99.90;;;;;;5092948;28;20236;-61
2022/01/09 13:06:25;;;;;;;4.55;1.50;;;4.90;99.90;;;;;;5091699;28;20184;-59